sensor_id;sensor_type;location;lat;lon;timestamp;P1;durP1;ratioP1;P2;durP2;ratioP2
15077;SDS011;7638;49.760;8.646;2023-01-31T00:00:46;7.37;;;3.23;;
15077;SDS011;7638;49.760;8.646;2023-01-31T00:03:12;8.80;;;3.70;;
15077;SDS011;7638;49.760;8.646;2023-01-31T00:05:38;12.07;;;4.17;;
15077;SDS011;7638;49.760;8.646;2023-01-31T00:08:04;6.83;;;3.40;;
15077;SDS011;7638;49.760;8.646;2023-01-31T00:10:30;15.83;;;4.10;;
15077;SDS011;7638;49.760;8.646;2023-01-31T00:12:56;7.20;;;3.73;;
15077;SDS011;7638;49.760;8.646;2023-01-31T00:15:22;15.23;;;4.70;;
15077;SDS011;7638;49.760;8.646;2023-01-31T00:17:48;11.47;;;4.57;;
15077;SDS011;7638;49.760;8.646;2023-01-31T00:20:14;13.17;;;4.87;;
15077;SDS011;7638;49.760;8.646;2023-01-31T00:22:40;11.23;;;4.40;;
15077;SDS011;7638;49.760;8.646;2023-01-31T00:25:06;8.97;;;4.87;;
15077;SDS011;7638;49.760;8.646;2023-01-31T00:27:33;13.70;;;4.93;;
15077;SDS011;7638;49.760;8.646;2023-01-31T00:29:59;12.10;;;4.90;;
15077;SDS011;7638;49.760;8.646;2023-01-31T00:32:25;10.60;;;5.00;;
15077;SDS011;7638;49.760;8.646;2023-01-31T00:34:54;8.20;;;5.40;;
15077;SDS011;7638;49.760;8.646;2023-01-31T00:37:20;10.00;;;5.33;;
15077;SDS011;7638;49.760;8.646;2023-01-31T00:39:46;12.67;;;5.33;;
15077;SDS011;7638;49.760;8.646;2023-01-31T00:42:12;10.23;;;5.40;;
15077;SDS011;7638;49.760;8.646;2023-01-31T00:44:38;10.27;;;5.17;;
15077;SDS011;7638;49.760;8.646;2023-01-31T00:47:04;11.50;;;5.77;;
15077;SDS011;7638;49.760;8.646;2023-01-31T00:49:31;9.20;;;5.17;;
15077;SDS011;7638;49.760;8.646;2023-01-31T00:51:57;9.00;;;4.77;;
15077;SDS011;7638;49.760;8.646;2023-01-31T00:54:23;15.80;;;6.00;;
15077;SDS011;7638;49.760;8.646;2023-01-31T00:56:49;10.13;;;4.80;;
15077;SDS011;7638;49.760;8.646;2023-01-31T00:59:15;11.43;;;5.33;;
15077;SDS011;7638;49.760;8.646;2023-01-31T01:01:44;9.20;;;5.03;;
15077;SDS011;7638;49.760;8.646;2023-01-31T01:04:10;12.17;;;4.90;;
15077;SDS011;7638;49.760;8.646;2023-01-31T01:06:37;7.07;;;4.73;;
15077;SDS011;7638;49.760;8.646;2023-01-31T01:09:05;10.93;;;5.17;;
15077;SDS011;7638;49.760;8.646;2023-01-31T01:11:32;14.60;;;5.07;;
15077;SDS011;7638;49.760;8.646;2023-01-31T01:13:58;9.20;;;4.20;;
15077;SDS011;7638;49.760;8.646;2023-01-31T01:16:34;9.43;;;4.80;;
15077;SDS011;7638;49.760;8.646;2023-01-31T01:19:03;14.27;;;4.90;;
15077;SDS011;7638;49.760;8.646;2023-01-31T01:21:29;7.30;;;4.63;;
15077;SDS011;7638;49.760;8.646;2023-01-31T01:23:56;14.97;;;4.97;;
15077;SDS011;7638;49.760;8.646;2023-01-31T01:26:24;10.80;;;4.53;;
15077;SDS011;7638;49.760;8.646;2023-01-31T01:28:51;13.13;;;4.03;;
15077;SDS011;7638;49.760;8.646;2023-01-31T01:31:18;16.73;;;4.67;;
15077;SDS011;7638;49.760;8.646;2023-01-31T01:33:45;10.70;;;5.03;;
15077;SDS011;7638;49.760;8.646;2023-01-31T01:36:11;5.67;;;3.70;;
15077;SDS011;7638;49.760;8.646;2023-01-31T01:38:40;11.97;;;4.17;;
15077;SDS011;7638;49.760;8.646;2023-01-31T01:41:06;10.77;;;4.50;;
15077;SDS011;7638;49.760;8.646;2023-01-31T01:43:43;11.40;;;4.40;;
15077;SDS011;7638;49.760;8.646;2023-01-31T01:46:10;10.77;;;4.13;;
15077;SDS011;7638;49.760;8.646;2023-01-31T01:48:37;8.37;;;4.43;;
15077;SDS011;7638;49.760;8.646;2023-01-31T01:51:03;8.40;;;4.17;;
15077;SDS011;7638;49.760;8.646;2023-01-31T01:53:31;14.50;;;5.33;;
15077;SDS011;7638;49.760;8.646;2023-01-31T01:56:02;10.97;;;3.83;;
15077;SDS011;7638;49.760;8.646;2023-01-31T01:58:32;18.03;;;5.20;;
15077;SDS011;7638;49.760;8.646;2023-01-31T02:01:03;10.43;;;4.77;;
15077;SDS011;7638;49.760;8.646;2023-01-31T02:03:30;11.40;;;4.50;;
15077;SDS011;7638;49.760;8.646;2023-01-31T02:05:57;13.37;;;4.30;;
15077;SDS011;7638;49.760;8.646;2023-01-31T02:08:24;12.33;;;4.27;;
15077;SDS011;7638;49.760;8.646;2023-01-31T02:11:00;13.10;;;4.80;;
15077;SDS011;7638;49.760;8.646;2023-01-31T02:13:28;15.57;;;4.10;;
15077;SDS011;7638;49.760;8.646;2023-01-31T02:15:54;14.83;;;4.03;;
15077;SDS011;7638;49.760;8.646;2023-01-31T02:18:20;10.97;;;3.83;;
15077;SDS011;7638;49.760;8.646;2023-01-31T02:23:48;8.33;;;4.20;;
15077;SDS011;7638;49.760;8.646;2023-01-31T02:31:51;8.60;;;4.00;;
15077;SDS011;7638;49.760;8.646;2023-01-31T02:42:03;8.37;;;3.73;;
15077;SDS011;7638;49.760;8.646;2023-01-31T02:47:30;8.47;;;3.50;;
15077;SDS011;7638;49.760;8.646;2023-01-31T02:50:01;7.17;;;3.47;;
15077;SDS011;7638;49.760;8.646;2023-01-31T02:54:59;10.33;;;2.97;;
15077;SDS011;7638;49.760;8.646;2023-01-31T02:57:51;8.00;;;2.87;;
15077;SDS011;7638;49.760;8.646;2023-01-31T03:00:18;7.73;;;3.20;;
15077;SDS011;7638;49.760;8.646;2023-01-31T03:02:45;10.20;;;3.43;;
15077;SDS011;7638;49.760;8.646;2023-01-31T03:05:13;12.57;;;4.30;;
15077;SDS011;7638;49.760;8.646;2023-01-31T03:07:39;11.07;;;3.50;;
15077;SDS011;7638;49.760;8.646;2023-01-31T03:10:16;12.80;;;3.27;;
15077;SDS011;7638;49.760;8.646;2023-01-31T03:20:19;11.47;;;3.90;;
15077;SDS011;7638;49.760;8.646;2023-01-31T03:22:49;12.97;;;3.93;;
15077;SDS011;7638;49.760;8.646;2023-01-31T03:25:19;8.03;;;2.87;;
15077;SDS011;7638;49.760;8.646;2023-01-31T03:27:47;7.20;;;3.73;;
15077;SDS011;7638;49.760;8.646;2023-01-31T03:30:17;8.13;;;2.90;;
15077;SDS011;7638;49.760;8.646;2023-01-31T03:32:52;7.10;;;3.77;;
15077;SDS011;7638;49.760;8.646;2023-01-31T03:35:20;13.03;;;3.43;;
15077;SDS011;7638;49.760;8.646;2023-01-31T03:37:59;6.60;;;3.03;;
15077;SDS011;7638;49.760;8.646;2023-01-31T03:40:30;6.43;;;3.30;;
15077;SDS011;7638;49.760;8.646;2023-01-31T03:45:50;8.03;;;2.73;;
15077;SDS011;7638;49.760;8.646;2023-01-31T03:48:17;11.47;;;3.87;;
15077;SDS011;7638;49.760;8.646;2023-01-31T03:50:48;6.73;;;2.77;;
15077;SDS011;7638;49.760;8.646;2023-01-31T03:55:42;13.30;;;3.10;;
15077;SDS011;7638;49.760;8.646;2023-01-31T03:58:09;10.47;;;3.00;;
15077;SDS011;7638;49.760;8.646;2023-01-31T04:00:56;9.90;;;3.07;;
15077;SDS011;7638;49.760;8.646;2023-01-31T04:03:26;7.63;;;3.57;;
15077;SDS011;7638;49.760;8.646;2023-01-31T04:05:53;14.37;;;3.43;;
15077;SDS011;7638;49.760;8.646;2023-01-31T04:08:19;10.37;;;2.83;;
15077;SDS011;7638;49.760;8.646;2023-01-31T04:10:45;7.40;;;2.80;;
15077;SDS011;7638;49.760;8.646;2023-01-31T04:13:11;12.50;;;3.50;;
15077;SDS011;7638;49.760;8.646;2023-01-31T04:15:37;6.63;;;3.27;;
15077;SDS011;7638;49.760;8.646;2023-01-31T04:18:03;8.07;;;3.23;;
15077;SDS011;7638;49.760;8.646;2023-01-31T04:20:29;9.77;;;2.80;;
15077;SDS011;7638;49.760;8.646;2023-01-31T04:22:55;10.13;;;3.00;;
15077;SDS011;7638;49.760;8.646;2023-01-31T04:25:24;17.10;;;3.97;;
15077;SDS011;7638;49.760;8.646;2023-01-31T04:27:50;8.23;;;3.00;;
15077;SDS011;7638;49.760;8.646;2023-01-31T04:30:16;7.57;;;2.47;;
15077;SDS011;7638;49.760;8.646;2023-01-31T04:32:42;9.50;;;3.30;;
15077;SDS011;7638;49.760;8.646;2023-01-31T04:35:08;8.23;;;2.73;;
15077;SDS011;7638;49.760;8.646;2023-01-31T04:37:34;10.83;;;3.13;;
15077;SDS011;7638;49.760;8.646;2023-01-31T04:40:00;8.10;;;3.00;;
15077;SDS011;7638;49.760;8.646;2023-01-31T04:42:26;7.57;;;2.67;;
15077;SDS011;7638;49.760;8.646;2023-01-31T04:44:52;5.00;;;2.70;;
15077;SDS011;7638;49.760;8.646;2023-01-31T04:47:18;10.23;;;3.33;;
15077;SDS011;7638;49.760;8.646;2023-01-31T04:49:44;11.27;;;3.40;;
15077;SDS011;7638;49.760;8.646;2023-01-31T04:52:10;5.27;;;2.43;;
15077;SDS011;7638;49.760;8.646;2023-01-31T04:54:36;13.10;;;3.53;;
15077;SDS011;7638;49.760;8.646;2023-01-31T04:57:02;10.60;;;3.27;;
15077;SDS011;7638;49.760;8.646;2023-01-31T04:59:28;9.13;;;3.03;;
15077;SDS011;7638;49.760;8.646;2023-01-31T05:01:57;11.10;;;3.37;;
15077;SDS011;7638;49.760;8.646;2023-01-31T05:04:23;9.90;;;2.97;;
15077;SDS011;7638;49.760;8.646;2023-01-31T05:06:50;12.27;;;3.30;;
15077;SDS011;7638;49.760;8.646;2023-01-31T05:09:16;9.13;;;2.40;;
15077;SDS011;7638;49.760;8.646;2023-01-31T05:11:43;5.57;;;2.67;;
15077;SDS011;7638;49.760;8.646;2023-01-31T05:14:09;8.97;;;2.80;;
15077;SDS011;7638;49.760;8.646;2023-01-31T05:16:35;10.43;;;3.10;;
15077;SDS011;7638;49.760;8.646;2023-01-31T05:19:01;4.93;;;2.70;;
15077;SDS011;7638;49.760;8.646;2023-01-31T05:21:26;9.53;;;3.00;;
15077;SDS011;7638;49.760;8.646;2023-01-31T05:23:52;7.43;;;2.93;;
15077;SDS011;7638;49.760;8.646;2023-01-31T05:26:18;10.60;;;2.80;;
15077;SDS011;7638;49.760;8.646;2023-01-31T05:28:44;7.43;;;3.50;;
15077;SDS011;7638;49.760;8.646;2023-01-31T05:31:13;5.67;;;3.40;;
15077;SDS011;7638;49.760;8.646;2023-01-31T05:33:39;11.50;;;2.93;;
15077;SDS011;7638;49.760;8.646;2023-01-31T05:36:06;11.13;;;3.57;;
15077;SDS011;7638;49.760;8.646;2023-01-31T05:38:32;7.93;;;2.53;;
15077;SDS011;7638;49.760;8.646;2023-01-31T05:40:58;10.00;;;3.93;;
15077;SDS011;7638;49.760;8.646;2023-01-31T05:43:24;8.00;;;3.43;;
15077;SDS011;7638;49.760;8.646;2023-01-31T05:45:50;14.03;;;5.50;;
15077;SDS011;7638;49.760;8.646;2023-01-31T05:48:16;9.43;;;2.80;;
15077;SDS011;7638;49.760;8.646;2023-01-31T05:50:42;8.03;;;3.10;;
15077;SDS011;7638;49.760;8.646;2023-01-31T05:53:08;10.17;;;2.90;;
15077;SDS011;7638;49.760;8.646;2023-01-31T05:55:35;9.50;;;3.10;;
15077;SDS011;7638;49.760;8.646;2023-01-31T05:58:01;13.63;;;2.97;;
15077;SDS011;7638;49.760;8.646;2023-01-31T06:00:27;10.73;;;3.20;;
15077;SDS011;7638;49.760;8.646;2023-01-31T06:02:55;8.43;;;3.10;;
15077;SDS011;7638;49.760;8.646;2023-01-31T06:05:22;7.67;;;3.40;;
15077;SDS011;7638;49.760;8.646;2023-01-31T06:07:48;7.27;;;3.03;;
15077;SDS011;7638;49.760;8.646;2023-01-31T06:10:14;8.97;;;3.77;;
15077;SDS011;7638;49.760;8.646;2023-01-31T06:12:40;7.57;;;3.30;;
15077;SDS011;7638;49.760;8.646;2023-01-31T06:15:06;9.07;;;3.53;;
15077;SDS011;7638;49.760;8.646;2023-01-31T06:17:32;13.10;;;4.13;;
15077;SDS011;7638;49.760;8.646;2023-01-31T06:19:58;4.63;;;2.50;;
15077;SDS011;7638;49.760;8.646;2023-01-31T06:22:24;10.50;;;4.10;;
15077;SDS011;7638;49.760;8.646;2023-01-31T06:24:50;15.43;;;3.67;;
15077;SDS011;7638;49.760;8.646;2023-01-31T06:27:16;20.27;;;3.77;;
15077;SDS011;7638;49.760;8.646;2023-01-31T06:29:42;6.47;;;3.60;;
15077;SDS011;7638;49.760;8.646;2023-01-31T06:32:08;15.73;;;3.80;;
15077;SDS011;7638;49.760;8.646;2023-01-31T06:34:34;10.13;;;3.70;;
15077;SDS011;7638;49.760;8.646;2023-01-31T06:37:00;7.37;;;3.73;;
15077;SDS011;7638;49.760;8.646;2023-01-31T06:39:26;9.83;;;3.20;;
15077;SDS011;7638;49.760;8.646;2023-01-31T06:41:52;12.27;;;4.13;;
15077;SDS011;7638;49.760;8.646;2023-01-31T06:44:18;9.13;;;3.33;;
15077;SDS011;7638;49.760;8.646;2023-01-31T06:46:44;7.97;;;4.10;;
15077;SDS011;7638;49.760;8.646;2023-01-31T06:49:10;11.10;;;4.17;;
15077;SDS011;7638;49.760;8.646;2023-01-31T06:51:37;9.60;;;4.27;;
15077;SDS011;7638;49.760;8.646;2023-01-31T06:54:03;16.23;;;4.23;;
15077;SDS011;7638;49.760;8.646;2023-01-31T06:56:29;8.43;;;4.00;;
15077;SDS011;7638;49.760;8.646;2023-01-31T06:58:55;11.10;;;3.40;;
15077;SDS011;7638;49.760;8.646;2023-01-31T07:01:21;7.90;;;3.90;;
15077;SDS011;7638;49.760;8.646;2023-01-31T07:03:48;12.37;;;4.13;;
15077;SDS011;7638;49.760;8.646;2023-01-31T07:06:14;10.53;;;3.37;;
15077;SDS011;7638;49.760;8.646;2023-01-31T07:08:43;10.97;;;3.93;;
15077;SDS011;7638;49.760;8.646;2023-01-31T07:11:09;8.03;;;4.03;;
15077;SDS011;7638;49.760;8.646;2023-01-31T07:13:35;9.23;;;4.80;;
15077;SDS011;7638;49.760;8.646;2023-01-31T07:16:01;13.40;;;5.43;;
15077;SDS011;7638;49.760;8.646;2023-01-31T07:18:27;7.60;;;3.83;;
15077;SDS011;7638;49.760;8.646;2023-01-31T07:20:53;13.33;;;4.47;;
15077;SDS011;7638;49.760;8.646;2023-01-31T07:23:19;12.30;;;4.17;;
15077;SDS011;7638;49.760;8.646;2023-01-31T07:25:45;13.10;;;4.93;;
15077;SDS011;7638;49.760;8.646;2023-01-31T07:28:11;19.50;;;6.60;;
15077;SDS011;7638;49.760;8.646;2023-01-31T07:30:37;12.07;;;6.10;;
15077;SDS011;7638;49.760;8.646;2023-01-31T07:33:07;19.70;;;6.67;;
15077;SDS011;7638;49.760;8.646;2023-01-31T07:35:33;11.67;;;6.90;;
15077;SDS011;7638;49.760;8.646;2023-01-31T07:37:59;15.37;;;7.57;;
15077;SDS011;7638;49.760;8.646;2023-01-31T07:40:25;13.53;;;6.77;;
15077;SDS011;7638;49.760;8.646;2023-01-31T07:42:56;11.77;;;6.53;;
15077;SDS011;7638;49.760;8.646;2023-01-31T07:45:22;14.57;;;6.97;;
15077;SDS011;7638;49.760;8.646;2023-01-31T07:47:47;13.87;;;7.07;;
15077;SDS011;7638;49.760;8.646;2023-01-31T07:50:13;12.60;;;6.23;;
15077;SDS011;7638;49.760;8.646;2023-01-31T07:52:39;16.80;;;7.27;;
15077;SDS011;7638;49.760;8.646;2023-01-31T07:55:06;13.93;;;6.60;;
15077;SDS011;7638;49.760;8.646;2023-01-31T07:57:32;15.23;;;5.97;;
15077;SDS011;7638;49.760;8.646;2023-01-31T07:59:58;12.63;;;6.33;;
15077;SDS011;7638;49.760;8.646;2023-01-31T08:02:28;15.23;;;6.70;;
15077;SDS011;7638;49.760;8.646;2023-01-31T08:05:12;13.30;;;5.47;;
15077;SDS011;7638;49.760;8.646;2023-01-31T08:07:38;10.67;;;6.43;;
15077;SDS011;7638;49.760;8.646;2023-01-31T08:10:04;17.27;;;7.20;;
15077;SDS011;7638;49.760;8.646;2023-01-31T08:12:30;12.67;;;6.63;;
15077;SDS011;7638;49.760;8.646;2023-01-31T08:14:56;16.33;;;6.87;;
15077;SDS011;7638;49.760;8.646;2023-01-31T08:17:22;10.60;;;5.87;;
15077;SDS011;7638;49.760;8.646;2023-01-31T08:19:48;18.33;;;7.03;;
15077;SDS011;7638;49.760;8.646;2023-01-31T08:22:14;13.33;;;5.77;;
15077;SDS011;7638;49.760;8.646;2023-01-31T08:24:40;11.23;;;5.93;;
15077;SDS011;7638;49.760;8.646;2023-01-31T08:27:06;11.47;;;5.97;;
15077;SDS011;7638;49.760;8.646;2023-01-31T08:29:32;11.60;;;5.90;;
15077;SDS011;7638;49.760;8.646;2023-01-31T08:31:58;11.90;;;5.97;;
15077;SDS011;7638;49.760;8.646;2023-01-31T08:34:25;9.30;;;5.53;;
15077;SDS011;7638;49.760;8.646;2023-01-31T08:36:51;12.63;;;5.20;;
15077;SDS011;7638;49.760;8.646;2023-01-31T08:39:17;10.20;;;5.53;;
15077;SDS011;7638;49.760;8.646;2023-01-31T08:41:43;13.10;;;5.63;;
15077;SDS011;7638;49.760;8.646;2023-01-31T08:44:10;15.67;;;4.63;;
15077;SDS011;7638;49.760;8.646;2023-01-31T08:46:36;9.23;;;4.70;;
15077;SDS011;7638;49.760;8.646;2023-01-31T08:49:03;11.87;;;4.77;;
15077;SDS011;7638;49.760;8.646;2023-01-31T08:51:30;9.33;;;4.93;;
15077;SDS011;7638;49.760;8.646;2023-01-31T08:53:56;11.43;;;5.30;;
15077;SDS011;7638;49.760;8.646;2023-01-31T08:56:22;10.33;;;4.53;;
15077;SDS011;7638;49.760;8.646;2023-01-31T08:58:52;15.73;;;5.70;;
15077;SDS011;7638;49.760;8.646;2023-01-31T09:01:19;11.23;;;4.90;;
15077;SDS011;7638;49.760;8.646;2023-01-31T09:03:45;14.23;;;5.70;;
15077;SDS011;7638;49.760;8.646;2023-01-31T09:06:15;12.30;;;6.27;;
15077;SDS011;7638;49.760;8.646;2023-01-31T09:08:42;12.13;;;5.97;;
15077;SDS011;7638;49.760;8.646;2023-01-31T09:11:08;18.03;;;5.50;;
15077;SDS011;7638;49.760;8.646;2023-01-31T09:13:34;9.73;;;5.70;;
15077;SDS011;7638;49.760;8.646;2023-01-31T09:16:01;9.40;;;4.90;;
15077;SDS011;7638;49.760;8.646;2023-01-31T09:18:27;13.70;;;6.40;;
15077;SDS011;7638;49.760;8.646;2023-01-31T09:20:54;8.77;;;5.03;;
15077;SDS011;7638;49.760;8.646;2023-01-31T09:23:20;10.67;;;6.10;;
15077;SDS011;7638;49.760;8.646;2023-01-31T09:25:53;16.93;;;5.60;;
15077;SDS011;7638;49.760;8.646;2023-01-31T09:28:19;14.73;;;6.53;;
15077;SDS011;7638;49.760;8.646;2023-01-31T09:30:45;13.03;;;5.70;;
15077;SDS011;7638;49.760;8.646;2023-01-31T09:33:11;16.70;;;6.23;;
15077;SDS011;7638;49.760;8.646;2023-01-31T09:35:37;13.57;;;6.10;;
15077;SDS011;7638;49.760;8.646;2023-01-31T09:38:03;11.20;;;6.20;;
15077;SDS011;7638;49.760;8.646;2023-01-31T09:40:30;13.43;;;5.60;;
15077;SDS011;7638;49.760;8.646;2023-01-31T09:42:57;12.97;;;6.33;;
15077;SDS011;7638;49.760;8.646;2023-01-31T09:47:53;11.37;;;5.10;;
15077;SDS011;7638;49.760;8.646;2023-01-31T09:52:56;12.70;;;5.87;;
15077;SDS011;7638;49.760;8.646;2023-01-31T09:55:46;13.70;;;6.80;;
15077;SDS011;7638;49.760;8.646;2023-01-31T10:00:42;13.60;;;5.70;;
15077;SDS011;7638;49.760;8.646;2023-01-31T10:03:31;8.83;;;5.37;;
15077;SDS011;7638;49.760;8.646;2023-01-31T10:11:18;15.47;;;5.53;;
15077;SDS011;7638;49.760;8.646;2023-01-31T10:13:48;14.47;;;7.07;;
15077;SDS011;7638;49.760;8.646;2023-01-31T10:16:27;12.03;;;5.93;;
15077;SDS011;7638;49.760;8.646;2023-01-31T10:18:57;12.63;;;5.43;;
15077;SDS011;7638;49.760;8.646;2023-01-31T10:21:27;12.90;;;5.30;;
15077;SDS011;7638;49.760;8.646;2023-01-31T10:26:22;13.20;;;6.07;;
15077;SDS011;7638;49.760;8.646;2023-01-31T10:28:53;16.93;;;6.20;;
15077;SDS011;7638;49.760;8.646;2023-01-31T10:36:32;12.23;;;5.87;;
15077;SDS011;7638;49.760;8.646;2023-01-31T10:44:24;10.33;;;5.43;;
15077;SDS011;7638;49.760;8.646;2023-01-31T10:46:54;17.43;;;6.10;;
15077;SDS011;7638;49.760;8.646;2023-01-31T10:49:22;13.27;;;6.40;;
15077;SDS011;7638;49.760;8.646;2023-01-31T10:54:25;15.40;;;7.20;;
15077;SDS011;7638;49.760;8.646;2023-01-31T10:56:54;17.37;;;5.73;;
15077;SDS011;7638;49.760;8.646;2023-01-31T10:59:23;10.90;;;5.27;;
15077;SDS011;7638;49.760;8.646;2023-01-31T11:01:52;12.50;;;6.30;;
15077;SDS011;7638;49.760;8.646;2023-01-31T11:04:33;17.20;;;6.37;;
15077;SDS011;7638;49.760;8.646;2023-01-31T11:07:01;13.93;;;5.67;;
15077;SDS011;7638;49.760;8.646;2023-01-31T11:09:28;15.33;;;6.17;;
15077;SDS011;7638;49.760;8.646;2023-01-31T11:11:56;12.70;;;6.87;;
15077;SDS011;7638;49.760;8.646;2023-01-31T11:14:23;18.13;;;7.03;;
15077;SDS011;7638;49.760;8.646;2023-01-31T11:16:49;15.27;;;6.97;;
15077;SDS011;7638;49.760;8.646;2023-01-31T11:19:34;12.77;;;6.07;;
15077;SDS011;7638;49.760;8.646;2023-01-31T11:22:02;12.20;;;5.87;;
15077;SDS011;7638;49.760;8.646;2023-01-31T11:24:29;12.53;;;6.50;;
15077;SDS011;7638;49.760;8.646;2023-01-31T11:26:58;15.30;;;5.63;;
15077;SDS011;7638;49.760;8.646;2023-01-31T11:29:28;18.93;;;7.00;;
15077;SDS011;7638;49.760;8.646;2023-01-31T11:31:55;15.87;;;6.47;;
15077;SDS011;7638;49.760;8.646;2023-01-31T11:34:24;16.47;;;6.83;;
15077;SDS011;7638;49.760;8.646;2023-01-31T11:36:51;14.33;;;6.10;;
15077;SDS011;7638;49.760;8.646;2023-01-31T11:39:27;14.13;;;6.30;;
15077;SDS011;7638;49.760;8.646;2023-01-31T11:41:53;13.30;;;5.57;;
15077;SDS011;7638;49.760;8.646;2023-01-31T11:44:20;13.97;;;6.03;;
15077;SDS011;7638;49.760;8.646;2023-01-31T11:46:51;12.40;;;6.60;;
15077;SDS011;7638;49.760;8.646;2023-01-31T11:49:39;16.23;;;6.00;;
15077;SDS011;7638;49.760;8.646;2023-01-31T11:52:12;14.77;;;7.43;;
15077;SDS011;7638;49.760;8.646;2023-01-31T11:54:39;13.23;;;6.93;;
15077;SDS011;7638;49.760;8.646;2023-01-31T11:57:15;11.33;;;5.93;;
15077;SDS011;7638;49.760;8.646;2023-01-31T11:59:42;20.47;;;6.20;;
15077;SDS011;7638;49.760;8.646;2023-01-31T12:02:30;15.43;;;6.10;;
15077;SDS011;7638;49.760;8.646;2023-01-31T12:04:57;13.67;;;6.37;;
15077;SDS011;7638;49.760;8.646;2023-01-31T12:07:24;13.50;;;6.30;;
15077;SDS011;7638;49.760;8.646;2023-01-31T12:09:50;13.20;;;5.63;;
15077;SDS011;7638;49.760;8.646;2023-01-31T12:12:21;16.10;;;5.80;;
15077;SDS011;7638;49.760;8.646;2023-01-31T12:14:48;10.90;;;5.73;;
15077;SDS011;7638;49.760;8.646;2023-01-31T12:17:14;14.50;;;6.40;;
15077;SDS011;7638;49.760;8.646;2023-01-31T12:24:58;14.50;;;6.83;;
15077;SDS011;7638;49.760;8.646;2023-01-31T12:32:40;10.03;;;5.70;;
15077;SDS011;7638;49.760;8.646;2023-01-31T12:37:59;10.20;;;5.60;;
15077;SDS011;7638;49.760;8.646;2023-01-31T12:43:15;15.60;;;5.70;;
15077;SDS011;7638;49.760;8.646;2023-01-31T12:45:55;14.47;;;5.43;;
15077;SDS011;7638;49.760;8.646;2023-01-31T12:53:38;9.03;;;5.43;;
15077;SDS011;7638;49.760;8.646;2023-01-31T12:56:18;16.47;;;5.40;;
15077;SDS011;7638;49.760;8.646;2023-01-31T13:01:36;7.60;;;4.23;;
15077;SDS011;7638;49.760;8.646;2023-01-31T13:06:38;9.13;;;4.60;;
15077;SDS011;7638;49.760;8.646;2023-01-31T13:09:09;9.97;;;4.87;;
15077;SDS011;7638;49.760;8.646;2023-01-31T13:11:46;11.03;;;5.23;;
15077;SDS011;7638;49.760;8.646;2023-01-31T13:14:14;15.87;;;5.33;;
15077;SDS011;7638;49.760;8.646;2023-01-31T13:16:41;8.80;;;5.13;;
15077;SDS011;7638;49.760;8.646;2023-01-31T13:19:51;11.60;;;4.77;;
15077;SDS011;7638;49.760;8.646;2023-01-31T13:21:58;14.60;;;4.87;;
15077;SDS011;7638;49.760;8.646;2023-01-31T13:24:26;8.10;;;4.20;;
15077;SDS011;7638;49.760;8.646;2023-01-31T13:26:55;8.13;;;4.43;;
15077;SDS011;7638;49.760;8.646;2023-01-31T13:34:28;11.80;;;4.50;;
15077;SDS011;7638;49.760;8.646;2023-01-31T13:37:03;7.00;;;5.23;;
15077;SDS011;7638;49.760;8.646;2023-01-31T13:39:41;11.43;;;4.80;;
15077;SDS011;7638;49.760;8.646;2023-01-31T13:42:14;10.83;;;4.80;;
15077;SDS011;7638;49.760;8.646;2023-01-31T13:44:41;15.73;;;5.10;;
15077;SDS011;7638;49.760;8.646;2023-01-31T13:47:28;10.00;;;4.67;;
15077;SDS011;7638;49.760;8.646;2023-01-31T13:50:01;8.23;;;3.90;;
15077;SDS011;7638;49.760;8.646;2023-01-31T13:52:30;14.73;;;5.67;;
15077;SDS011;7638;49.760;8.646;2023-01-31T13:55:04;9.73;;;5.20;;
15077;SDS011;7638;49.760;8.646;2023-01-31T13:57:33;10.87;;;5.03;;
15077;SDS011;7638;49.760;8.646;2023-01-31T14:00:19;9.50;;;4.57;;
15077;SDS011;7638;49.760;8.646;2023-01-31T14:10:51;7.77;;;4.93;;
15077;SDS011;7638;49.760;8.646;2023-01-31T14:15:54;12.77;;;6.10;;
15077;SDS011;7638;49.760;8.646;2023-01-31T14:19:02;9.73;;;4.87;;
15077;SDS011;7638;49.760;8.646;2023-01-31T14:23:54;12.60;;;6.70;;
15077;SDS011;7638;49.760;8.646;2023-01-31T14:26:31;11.47;;;6.60;;
15077;SDS011;7638;49.760;8.646;2023-01-31T14:28:57;13.10;;;6.07;;
15077;SDS011;7638;49.760;8.646;2023-01-31T14:31:24;14.27;;;6.00;;
15077;SDS011;7638;49.760;8.646;2023-01-31T14:33:51;15.23;;;7.23;;
15077;SDS011;7638;49.760;8.646;2023-01-31T14:36:32;19.17;;;10.87;;
15077;SDS011;7638;49.760;8.646;2023-01-31T14:50:19;15.60;;;8.10;;
15077;SDS011;7638;49.760;8.646;2023-01-31T14:57:30;17.30;;;8.00;;
15077;SDS011;7638;49.760;8.646;2023-01-31T15:00:04;17.57;;;8.33;;
15077;SDS011;7638;49.760;8.646;2023-01-31T15:07:23;10.50;;;6.43;;
15077;SDS011;7638;49.760;8.646;2023-01-31T15:09:49;14.43;;;7.30;;
15077;SDS011;7638;49.760;8.646;2023-01-31T15:15:07;15.67;;;6.80;;
15077;SDS011;7638;49.760;8.646;2023-01-31T15:17:34;14.80;;;6.10;;
15077;SDS011;7638;49.760;8.646;2023-01-31T15:20:15;16.33;;;6.43;;
15077;SDS011;7638;49.760;8.646;2023-01-31T15:22:42;14.50;;;7.40;;
15077;SDS011;7638;49.760;8.646;2023-01-31T15:27:50;13.47;;;6.13;;
15077;SDS011;7638;49.760;8.646;2023-01-31T15:30:20;10.70;;;6.47;;
15077;SDS011;7638;49.760;8.646;2023-01-31T15:37:53;15.70;;;6.37;;
15077;SDS011;7638;49.760;8.646;2023-01-31T15:40:21;12.37;;;6.60;;
15077;SDS011;7638;49.760;8.646;2023-01-31T15:42:49;18.37;;;6.90;;
15077;SDS011;7638;49.760;8.646;2023-01-31T15:45:25;16.70;;;7.03;;
15077;SDS011;7638;49.760;8.646;2023-01-31T15:48:02;15.47;;;6.07;;
15077;SDS011;7638;49.760;8.646;2023-01-31T15:50:32;12.53;;;6.10;;
15077;SDS011;7638;49.760;8.646;2023-01-31T15:53:05;12.47;;;5.77;;
15077;SDS011;7638;49.760;8.646;2023-01-31T15:55:33;11.30;;;5.97;;
15077;SDS011;7638;49.760;8.646;2023-01-31T15:58:00;20.23;;;6.87;;
15077;SDS011;7638;49.760;8.646;2023-01-31T16:00:30;18.73;;;7.67;;
15077;SDS011;7638;49.760;8.646;2023-01-31T16:03:00;15.20;;;6.03;;
15077;SDS011;7638;49.760;8.646;2023-01-31T16:05:27;18.83;;;7.40;;
15077;SDS011;7638;49.760;8.646;2023-01-31T16:07:55;13.37;;;6.57;;
15077;SDS011;7638;49.760;8.646;2023-01-31T16:10:21;12.63;;;6.37;;
15077;SDS011;7638;49.760;8.646;2023-01-31T16:12:48;16.13;;;6.10;;
15077;SDS011;7638;49.760;8.646;2023-01-31T16:15:17;16.93;;;6.00;;
15077;SDS011;7638;49.760;8.646;2023-01-31T16:17:44;16.10;;;5.73;;
15077;SDS011;7638;49.760;8.646;2023-01-31T16:20:32;13.17;;;6.03;;
15077;SDS011;7638;49.760;8.646;2023-01-31T16:22:56;18.40;;;5.47;;
15077;SDS011;7638;49.760;8.646;2023-01-31T16:25:22;12.50;;;5.67;;
15077;SDS011;7638;49.760;8.646;2023-01-31T16:27:48;15.83;;;6.17;;
15077;SDS011;7638;49.760;8.646;2023-01-31T16:30:14;11.33;;;5.17;;
15077;SDS011;7638;49.760;8.646;2023-01-31T16:32:44;11.33;;;4.33;;
15077;SDS011;7638;49.760;8.646;2023-01-31T16:35:19;11.47;;;5.60;;
15077;SDS011;7638;49.760;8.646;2023-01-31T16:37:51;10.33;;;5.37;;
15077;SDS011;7638;49.760;8.646;2023-01-31T16:40:24;10.73;;;5.10;;
15077;SDS011;7638;49.760;8.646;2023-01-31T16:43:07;8.47;;;4.90;;
15077;SDS011;7638;49.760;8.646;2023-01-31T16:45:34;11.23;;;5.13;;
15077;SDS011;7638;49.760;8.646;2023-01-31T16:48:17;8.87;;;4.27;;
15077;SDS011;7638;49.760;8.646;2023-01-31T16:50:44;8.87;;;5.23;;
15077;SDS011;7638;49.760;8.646;2023-01-31T16:55:43;11.43;;;5.83;;
15077;SDS011;7638;49.760;8.646;2023-01-31T16:58:09;15.20;;;5.70;;
15077;SDS011;7638;49.760;8.646;2023-01-31T17:00:36;8.30;;;5.20;;
15077;SDS011;7638;49.760;8.646;2023-01-31T17:03:02;6.70;;;4.97;;
15077;SDS011;7638;49.760;8.646;2023-01-31T17:05:38;8.37;;;5.20;;
15077;SDS011;7638;49.760;8.646;2023-01-31T17:08:08;6.70;;;4.43;;
15077;SDS011;7638;49.760;8.646;2023-01-31T17:10:35;11.87;;;5.43;;
15077;SDS011;7638;49.760;8.646;2023-01-31T17:15:38;12.00;;;5.23;;
15077;SDS011;7638;49.760;8.646;2023-01-31T17:18:05;8.53;;;5.23;;
15077;SDS011;7638;49.760;8.646;2023-01-31T17:20:31;9.27;;;4.90;;
15077;SDS011;7638;49.760;8.646;2023-01-31T17:22:57;6.40;;;5.00;;
15077;SDS011;7638;49.760;8.646;2023-01-31T17:25:24;14.23;;;5.33;;